Terminal Aerodrome Forecast
Issued by NWS

Home | Current Version | Previous Version | Text Only | Print | Product List | Glossary On
Versions: 1 2 3 4 5 6 7 8 9 10 11 12 13 14 15 16 17
000
FTUS45 KFGZ 232300
TAFGCN
TAF
KGCN 232331Z 2400/2424 20010KT P6SM BKN090
     FM240230 VRB03KT P6SM BKN100
     FM241700 21010G15KT P6SM BKN100 PROB30 2418/2424 VRB15G25KT
      -TSRA BKN080CB=

USA.gov is the U.S. government's official web portal to all federal, state and local government web resources and services.